Watertown Regional Airport
KATY : rendu visible

Aérodrome :











RETROUVEZ-NOUS SUR...

 
LOGIN :

S'inscrire | Disclaimer

   EN    FR    IT 

 









Légende :    VFR   VFR Marginal   IFR   IFR Intensif   IFR Très Intensif
Visi : 
Plafond : 
>= 8 km
>= 3000ft
5 à 8 km
1000 à 3000 ft
1500m à 5 km
500 à 1000 ft
800 à 1500m
200 à 500 ft
< 800m
< 200 ft
Symboles :   Orages  Brouillard  Fortes neiges  Fortes précipitations  Vent > 20 kt






- Altitude de l'aérodrome : 1749 ft
- Code IATA : ATY


KATY - Watertown Regional

DERNIER METAR :
  • 191253Z AUTO 30008KT 10SM CLR 00/M02 A2978 RMK AO2 SLP099 T00001017

METARs EXPIRÉS :
  • 191153Z AUTO 31007KT 10SM CLR 00/M02 A2975 RMK AO2 SLP090 70018 T00001022 10028 21006 51007
  • 191053Z AUTO 29009KT 10SM CLR 01/M02 A2975 RMK AO2 SLP088 T00061022

TAF KATY
Valide du 19 à 12h jusqu'au 20 à 12h UTC


191123Z 1912/2012 29009KT P6SM SCT250
TEMPO 1915/1918 BKN015
FM192300 VRB05KT P6SM BKN250
FM200800 12010KT P6SM BKN050



MET'MAP, la Météo Aéronautique d'un coup d'oeil ! - Copyright ORBIFLY Décembre 2007 - Disclaimer

ORBIFLY MET'MAP TEAM :

Programmation & Développement : Alexandra Zaïnal
Conception & Développement : Baudouin d'Aumeries
Co-Programmation & Développement : Marc-Olivier Méhu
Soutien technique & logistique : Manuel Goepfert

Contact : metmap@orbifly.com




SOURCES & CREDITS :

   NOAA       Earth
Advisory